KFBL/FBL METAR and TAF weather

Enter ICAO airport designator
Station Type Date Time Source
KFBL METAR 2021/07/27 21:55 UTC NOAA

KFBL 272155Z AUTO 26003KT 10SM SCT035 32/24 A2996 RMK AO2


Station Type Date Time Source
KFBL Decoded METAR 2021/07/27 21:55 UTC NOAA

Faribault, Faribault Municipal Airport, MN, United States (KFBL) 44-20N 093-19W
Jul 27, 2021 - 05:55 PM EDT / 2021.07.27 2155 UTC
Wind: from the W (260 degrees) at 3 MPH (3 KT):0
Visibility: 10 mile(s):0
Sky conditions: partly cloudy
Temperature: 89 F (32 C)
Heat index: 98.4 F (36.9 C):1
Dew Point: 75 F (24 C)
Relative Humidity: 62%
Pressure (altimeter): 29.96 in. Hg (1014 hPa)
ob: KFBL 272155Z AUTO 26003KT 10SM SCT035 32/24 A2996 RMK AO2
cycle: 22

Station Type Date Time Source
KFBL TAF UTC NOAA

Error!

Example: see airport list